Aérodrome :
LOGIN :

S'inscrire | Disclaimer

   EN    FR    IT 

 










Légende :    VFR   VFR Marginal   IFR   IFR Intensif   IFR Très Intensif
Visi : 
Plafond : 
>= 8 km
>= 3000ft
5 à 8 km
1000 à 3000 ft
1500m à 5 km
500 à 1000 ft
800 à 1500m
200 à 500 ft
< 800m
< 200 ft
Symboles :   Orages  Brouillard  Fortes neiges  Fortes précipitations  Vent > 20 kt
SIGMETs :   Divers  Orages  Givrage  Turbulence  Onde Orograph.  Cendres Volcan.







- Altitude de l'aérodrome : 776 ft
- Code IATA : RMS


ETAR - Ramstein Air Base

DERNIER METAR :
  • 151456Z AUTO 06007KT 9999 CLR 24/23 A2992 RMK AO2 SLP132 T02390228 55004 $

METARs EXPIRÉS :
  • 151356Z AUTO 02005KT 9999 CLR 24/24 A2992 RMK AO2 SLP131 T02420235 $
  • 151256Z AUTO 01009KT 9999 CLR 24/23 A2992 RMK AO2 SLP130 T02390234 $

TAF TAF ETAR
Valide du 15 à 10h jusqu'au 16 à 16h UTC


151004Z 1510/1616 04006KT 9999 FEW200 QNH2990INS
TEMPO 1604/1607 8000 BR
BECMG 1608/1609 08006KT 9999 FEW200 QNH3002INS TX26/1513Z TN05/1606Z
Pas de NOTAMs connus pour ce terrain.



MET'MAP, la Météo Aéronautique d'un coup d'oeil ! - Copyright ORBIFLY Décembre 2007 - Disclaimer

ORBIFLY MET'MAP TEAM :

Programmation & Développement : Alexandra Zaïnal
Conception & Développement : Baudouin d'Aumeries
Co-Programmation & Développement : Marc-Olivier Méhu
Soutien technique & logistique : Manuel Goepfert

Contact : metmap@orbifly.com




SOURCES & CREDITS :

   NOAA